Time;durP1;ratioP1;P1;durP2;ratioP2;P2;SDS_P1;SDS_P2;PMS_P1;PMS_P2;Temp;Humidity;BMP_temperature;BMP_pressure;BME280_temperature;BME280_humidity;BME280_pressure;Samples;Min_cycle;Max_cycle;Signal;HPM_P1;HPM_P2
2021/11/07 00:01:29;;;;;;;11.27;7.57;;;;;;;7.04;84.06;96577.97;1793095;80;21126;-69
2021/11/07 00:05:33;;;;;;;12.07;7.80;;;;;;;7.08;84.72;96586.34;1794648;80;21091;-69
2021/11/07 00:10:44;;;;;;;12.53;7.97;;;;;;;7.14;84.62;96589.45;1795174;80;21556;-69
2021/11/07 00:15:40;;;;;;;13.53;7.50;;;;;;;7.29;84.89;96567.73;1795498;80;21090;-69
2021/11/07 00:18:10;;;;;;;10.07;6.97;;;;;;;7.26;84.33;96562.02;1795370;80;21520;-69
2021/11/07 00:20:42;;;;;;;8.20;6.30;;;;;;;7.25;84.22;96561.99;1794829;80;21512;-69
2021/11/07 00:26:09;;;;;;;10.10;6.50;;;;;;;7.22;84.04;96585.16;1794954;80;21146;-69
2021/11/07 00:28:37;;;;;;;9.43;6.37;;;;;;;7.13;83.40;96591.20;1789906;80;21058;-68
2021/11/07 00:36:18;;;;;;;12.30;6.37;;;;;;;6.88;84.33;96570.81;1795467;80;21086;-69
2021/11/07 00:38:55;;;;;;;8.07;5.33;;;;;;;6.90;84.58;96574.30;1794501;80;21059;-69
2021/11/07 00:41:51;;;;;;;10.90;6.00;;;;;;;6.87;84.33;96565.09;1790599;80;21074;-68
2021/11/07 00:44:07;;;;;;;7.63;4.97;;;;;;;6.80;85.59;96553.64;1776478;80;21038;-68
2021/11/07 00:46:21;;;;;;;8.37;5.80;;;;;;;6.76;84.84;96558.42;1779145;80;21095;-68
2021/11/07 00:48:47;;;;;;;9.73;7.37;;;;;;;6.72;85.55;96548.74;1793018;80;21433;-68
2021/11/07 00:51:31;;;;;;;23.10;12.20;;;;;;;6.73;85.80;96543.97;1794635;80;21098;-68
2021/11/07 01:01:54;;;;;;;10.83;7.10;;;;;;;6.64;86.43;96522.87;1795335;80;21037;-69
2021/11/07 01:04:22;;;;;;;14.80;8.83;;;;;;;6.64;86.21;96526.36;1795369;80;21030;-68
2021/11/07 01:06:49;;;;;;;16.40;9.90;;;;;;;6.66;86.30;96520.71;1795333;80;21054;-69
2021/11/07 01:09:16;;;;;;;17.17;10.00;;;;;;;6.80;86.70;96518.66;1795338;80;21011;-69
2021/11/07 01:11:43;;;;;;;21.57;11.60;;;;;;;6.91;86.64;96512.68;1795263;80;20986;-69
2021/11/07 01:14:12;;;;;;;15.73;9.57;;;;;;;6.99;86.25;96513.20;1795462;80;20998;-69
2021/11/07 01:16:40;;;;;;;12.37;8.03;;;;;;;7.00;85.94;96494.82;1795017;80;21090;-67
2021/11/07 01:19:08;;;;;;;12.20;7.87;;;;;;;7.09;86.13;96482.23;1795539;80;20959;-68
2021/11/07 01:21:40;;;;;;;12.27;7.00;;;;;;;7.20;85.92;96478.39;1795080;80;21023;-68
2021/11/07 01:24:15;;;;;;;12.73;7.67;;;;;;;7.13;85.08;96472.20;1795415;80;20974;-69
2021/11/07 01:26:39;;;;;;;13.07;7.63;;;;;;;7.10;85.10;96469.55;1793337;80;21134;-69
2021/11/07 01:29:16;;;;;;;9.10;6.23;;;;;;;7.14;85.30;96470.04;1794890;80;21014;-69
2021/11/07 01:31:43;;;;;;;9.67;5.70;;;;;;;7.21;85.24;96469.67;1795163;80;21091;-69
2021/11/07 01:34:22;;;;;;;7.57;5.23;;;;;;;7.20;84.80;96474.45;1795535;80;20951;-69
2021/11/07 01:36:59;;;;;;;11.73;5.97;;;;;;;7.15;84.80;96467.41;1793979;80;21066;-70
2021/11/07 01:39:33;;;;;;;7.33;5.27;;;;;;;7.20;85.05;96464.83;1794327;80;21102;-69
2021/11/07 01:42:05;;;;;;;14.70;6.57;;;;;;;7.30;85.09;96453.97;1792663;80;21556;-69
2021/11/07 01:44:58;;;;;;;7.70;5.40;;;;;;;7.29;84.62;96459.66;1794340;80;21121;-69
2021/11/07 01:47:24;;;;;;;8.90;6.23;;;;;;;7.24;84.30;96452.62;1794648;80;21086;-69
2021/11/07 01:49:51;;;;;;;9.30;6.83;;;;;;;7.17;84.56;96458.25;1795581;80;21033;-69
2021/11/07 01:52:21;;;;;;;10.93;6.80;;;;;;;7.22;84.73;96456.98;1795492;80;21075;-69
2021/11/07 01:54:52;;;;;;;14.70;7.43;;;;;;;7.34;85.39;96450.52;1792160;80;21007;-69
2021/11/07 01:57:21;;;;;;;12.33;6.37;;;;;;;7.46;85.28;96447.08;1786494;80;21054;-69
2021/11/07 01:59:52;;;;;;;9.47;6.50;;;;;;;7.54;84.66;96457.23;1787236;80;20971;-70
2021/11/07 02:02:22;;;;;;;12.20;6.97;;;;;;;7.44;84.28;96459.34;1787169;80;21500;-69
2021/11/07 02:04:50;;;;;;;12.80;6.57;;;;;;;7.37;84.48;96462.35;1786992;80;21037;-69
2021/11/07 02:07:17;;;;;;;11.33;6.53;;;;;;;7.30;84.69;96453.97;1786897;80;21083;-69
2021/11/07 02:09:44;;;;;;;12.77;7.13;;;;;;;7.30;84.92;96450.04;1787150;80;21485;-69
2021/11/07 02:12:12;;;;;;;10.73;6.23;;;;;;;7.28;84.85;96439.55;1786736;80;21043;-69
2021/11/07 02:14:40;;;;;;;14.60;6.70;;;;;;;7.33;84.85;96438.24;1787223;80;21015;-69
2021/11/07 02:17:09;;;;;;;11.30;6.17;;;;;;;7.31;84.41;96421.63;1786907;80;21011;-69
2021/11/07 02:19:37;;;;;;;13.47;7.60;;;;;;;7.24;84.56;96415.44;1786887;80;20975;-69
2021/11/07 02:22:05;;;;;;;19.40;9.20;;;;;;;7.21;84.89;96421.11;1786798;80;21011;-69
2021/11/07 02:24:34;;;;;;;18.20;9.47;;;;;;;7.14;85.08;96419.73;1787373;80;21508;-69
2021/11/07 02:27:01;;;;;;;12.63;7.07;;;;;;;7.12;85.01;96414.90;1786887;80;21532;-69
2021/11/07 02:29:30;;;;;;;11.83;7.50;;;;;;;7.11;84.87;96414.47;1787214;80;21003;-69
2021/11/07 02:31:58;;;;;;;15.33;8.23;;;;;;;7.11;84.95;96410.97;1786899;80;21099;-69
2021/11/07 02:34:28;;;;;;;21.53;11.53;;;;;;;7.08;84.92;96415.77;1787207;80;21445;-68
2021/11/07 02:36:56;;;;;;;21.87;11.73;;;;;;;7.05;84.77;96426.64;1786537;80;21047;-69
2021/11/07 02:39:25;;;;;;;14.23;8.57;;;;;;;7.02;85.26;96424.00;1786992;80;21015;-68
2021/11/07 02:41:52;;;;;;;18.60;9.07;;;;;;;7.06;85.18;96425.80;1786832;80;21087;-68
2021/11/07 02:44:35;;;;;;;17.00;9.47;;;;;;;7.07;85.33;96424.48;1787210;80;21540;-69
2021/11/07 02:47:04;;;;;;;11.73;8.20;;;;;;;7.10;85.44;96427.56;1786728;80;21010;-69
2021/11/07 02:49:32;;;;;;;11.27;6.40;;;;;;;7.12;85.38;96429.77;1787250;80;21031;-69
2021/11/07 02:52:01;;;;;;;13.93;8.47;;;;;;;7.15;85.17;96425.41;1786739;80;21508;-69
2021/11/07 02:54:29;;;;;;;15.63;7.60;;;;;;;7.18;85.29;96427.19;1788051;80;21022;-69
2021/11/07 02:56:57;;;;;;;8.10;6.13;;;;;;;7.26;85.29;96418.96;1795201;80;21085;-69
2021/11/07 02:59:28;;;;;;;10.00;6.93;;;;;;;7.28;84.98;96419.86;1795557;80;21002;-69
2021/11/07 03:01:57;;;;;;;15.17;8.00;;;;;;;7.24;84.82;96410.63;1795433;80;20990;-69
2021/11/07 03:04:25;;;;;;;10.77;7.27;;;;;;;7.26;84.78;96422.90;1795247;80;21488;-69
2021/11/07 03:06:52;;;;;;;10.60;6.93;;;;;;;7.29;84.95;96413.72;1795404;80;20986;-69
2021/11/07 03:09:27;;;;;;;8.13;6.03;;;;;;;7.34;84.95;96412.45;1795084;80;21054;-69
2021/11/07 03:11:56;;;;;;;12.30;8.23;;;;;;;7.39;85.06;96425.17;1795583;80;21069;-70
2021/11/07 03:14:33;;;;;;;12.13;7.33;;;;;;;7.41;84.83;96427.38;1795486;80;20979;-69
2021/11/07 03:17:02;;;;;;;9.77;6.77;;;;;;;7.48;85.15;96414.72;1795612;80;20999;-70
2021/11/07 03:19:30;;;;;;;10.70;6.20;;;;;;;7.46;84.76;96415.58;1795583;80;20971;-69
2021/11/07 03:22:01;;;;;;;10.03;6.37;;;;;;;7.44;84.52;96408.15;1795259;80;21010;-69
2021/11/07 03:24:28;;;;;;;13.27;7.13;;;;;;;7.37;84.44;96405.46;1795509;80;20974;-69
2021/11/07 03:26:57;;;;;;;8.60;6.20;;;;;;;7.36;85.13;96392.34;1795148;80;21477;-68
2021/11/07 03:29:32;;;;;;;8.83;5.30;;;;;;;7.44;85.41;96389.77;1795262;80;21014;-69
2021/11/07 03:32:01;;;;;;;11.07;7.00;;;;;;;7.45;84.85;96386.27;1794043;80;21041;-69
2021/11/07 03:34:28;;;;;;;10.80;6.50;;;;;;;7.43;84.86;96374.86;1793921;80;21102;-69
2021/11/07 03:36:56;;;;;;;12.43;7.30;;;;;;;7.43;85.00;96369.17;1794828;80;21034;-69
2021/11/07 03:39:27;;;;;;;8.70;6.60;;;;;;;7.38;84.99;96359.08;1795675;80;21078;-69
2021/11/07 03:41:55;;;;;;;10.00;7.63;;;;;;;7.44;85.44;96356.51;1795602;80;21511;-68
2021/11/07 03:44:23;;;;;;;10.90;7.30;;;;;;;7.53;85.92;96347.38;1795320;80;21114;-69
2021/11/07 03:46:54;;;;;;;17.90;11.10;;;;;;;7.57;85.74;96341.25;1795462;80;21030;-69
2021/11/07 03:49:22;;;;;;;20.47;12.57;;;;;;;7.59;85.44;96340.83;1795357;80;21094;-68
2021/11/07 03:51:48;;;;;;;20.73;13.07;;;;;;;7.61;85.63;96352.67;1795268;80;21560;-68
2021/11/07 03:54:18;;;;;;;20.77;12.43;;;;;;;7.64;85.48;96363.19;1795084;80;21018;-68
2021/11/07 03:56:45;;;;;;;21.73;12.63;;;;;;;7.65;85.38;96360.98;1787339;80;21046;-69
2021/11/07 03:59:12;;;;;;;22.13;13.53;;;;;;;7.69;85.56;96346.14;1786918;80;21573;-68
2021/11/07 04:01:38;;;;;;;21.77;12.80;;;;;;;7.68;85.40;96336.48;1787039;80;21011;-69
2021/11/07 04:04:07;;;;;;;20.63;12.63;;;;;;;7.67;85.40;96331.67;1786725;80;21082;-68
2021/11/07 04:06:36;;;;;;;21.03;12.37;;;;;;;7.72;85.63;96339.13;1787075;80;21014;-69
2021/11/07 04:09:06;;;;;;;20.07;11.90;;;;;;;7.78;85.38;96340.91;1787044;80;20995;-69
2021/11/07 04:11:33;;;;;;;18.70;11.83;;;;;;;7.70;84.84;96325.11;1787204;80;21500;-69
2021/11/07 04:14:00;;;;;;;18.03;11.10;;;;;;;7.61;84.55;96318.94;1786799;80;21023;-68
2021/11/07 04:16:28;;;;;;;16.77;10.10;;;;;;;7.50;84.60;96313.64;1786980;80;21003;-69
2021/11/07 04:18:54;;;;;;;13.60;9.37;;;;;;;7.50;85.11;96307.95;1786676;80;21079;-69
2021/11/07 04:21:21;;;;;;;14.33;9.93;;;;;;;7.49;85.09;96299.64;1786995;80;21010;-69
2021/11/07 04:23:48;;;;;;;16.73;10.03;;;;;;;7.33;84.88;96292.54;1786812;80;21008;-69
2021/11/07 04:26:15;;;;;;;17.47;9.97;;;;;;;7.18;85.08;96282.83;1786917;80;21079;-69
2021/11/07 04:28:42;;;;;;;14.17;9.27;;;;;;;7.13;85.33;96282.84;1786741;80;21087;-69
2021/11/07 04:31:10;;;;;;;11.10;7.53;;;;;;;7.08;85.41;96291.12;1786799;80;21011;-70
2021/11/07 04:33:36;;;;;;;11.87;8.30;;;;;;;6.98;85.46;96279.22;1786734;80;20976;-69
2021/11/07 04:36:05;;;;;;;14.40;8.30;;;;;;;6.94;85.78;96275.27;1786650;80;21030;-69
2021/11/07 04:38:35;;;;;;;18.43;9.90;;;;;;;7.00;86.06;96273.55;1787038;80;21549;-69
2021/11/07 04:41:02;;;;;;;15.47;9.90;;;;;;;7.00;85.83;96270.48;1787223;80;21046;-69
2021/11/07 04:43:28;;;;;;;12.17;7.73;;;;;;;6.92;85.89;96263.88;1786803;80;21083;-69
2021/11/07 04:45:55;;;;;;;15.97;10.47;;;;;;;6.94;86.17;96280.52;1786811;80;21058;-68
2021/11/07 04:48:22;;;;;;;14.93;10.27;;;;;;;6.85;87.06;96274.33;1786751;80;21616;-68
2021/11/07 04:50:50;;;;;;;17.90;11.83;;;;;;;6.87;87.34;96272.59;1786506;80;21014;-69
2021/11/07 04:53:21;;;;;;;18.80;12.27;;;;;;;6.86;87.35;96266.48;1786747;80;21019;-68
2021/11/07 04:55:48;;;;;;;20.70;12.33;;;;;;;6.94;87.82;96262.59;1790526;80;21034;-69
2021/11/07 04:58:16;;;;;;;19.10;12.30;;;;;;;7.03;87.72;96266.59;1795069;80;21006;-68
2021/11/07 05:00:44;;;;;;;17.30;11.93;;;;;;;7.09;87.65;96267.92;1795278;80;20991;-69
2021/11/07 05:03:11;;;;;;;20.03;12.20;;;;;;;7.14;87.41;96243.90;1795067;80;21922;-70
2021/11/07 05:05:38;;;;;;;16.57;10.83;;;;;;;7.16;87.27;96246.55;1795436;80;21057;-69
2021/11/07 05:08:06;;;;;;;19.63;11.87;;;;;;;7.15;86.80;96244.77;1795270;80;21054;-69
2021/11/07 05:10:35;;;;;;;22.50;12.43;;;;;;;7.13;87.16;96230.76;1795316;80;21042;-69
2021/11/07 05:13:03;;;;;;;20.60;12.10;;;;;;;7.11;87.51;96212.40;1795548;80;21501;-69
2021/11/07 05:15:31;;;;;;;22.33;13.50;;;;;;;7.03;87.72;96219.37;1795375;80;21460;-69
2021/11/07 05:17:58;;;;;;;23.23;14.83;;;;;;;7.04;87.60;96242.09;1795476;80;21110;-69
2021/11/07 05:20:25;;;;;;;23.03;14.10;;;;;;;7.03;87.72;96228.95;1795222;80;21041;-68
2021/11/07 05:22:51;;;;;;;21.77;13.80;;;;;;;7.07;87.60;96247.36;1794946;80;21058;-69
2021/11/07 05:25:18;;;;;;;25.33;15.00;;;;;;;7.14;87.71;96249.59;1795051;80;21046;-69
2021/11/07 05:27:45;;;;;;;24.03;15.13;;;;;;;7.20;87.76;96266.66;1795038;80;21148;-69
2021/11/07 05:30:15;;;;;;;21.80;14.60;;;;;;;7.21;87.41;96273.69;1795608;80;21086;-69
2021/11/07 05:32:41;;;;;;;19.90;14.20;;;;;;;7.23;87.44;96268.42;1795369;80;21026;-70
2021/11/07 05:35:09;;;;;;;23.57;14.53;;;;;;;7.31;87.52;96274.63;1795247;80;21035;-70
2021/11/07 05:37:36;;;;;;;19.53;13.43;;;;;;;7.28;87.14;96252.27;1795325;80;20993;-71
2021/11/07 05:40:08;;;;;;;21.90;13.37;;;;;;;7.35;87.24;96243.55;1795314;80;20987;-70
2021/11/07 05:42:35;;;;;;;20.10;12.80;;;;;;;7.36;87.26;96235.70;1795219;80;21057;-70
2021/11/07 05:45:03;;;;;;;26.93;18.40;;;;;;;7.33;87.01;96241.35;1795056;80;21089;-70
2021/11/07 05:47:30;;;;;;;23.03;14.20;;;;;;;7.31;86.97;96247.92;1795764;80;21071;-69
2021/11/07 05:49:58;;;;;;;21.50;13.00;;;;;;;7.38;87.37;96242.25;1795423;80;21477;-70
2021/11/07 05:52:26;;;;;;;19.20;13.20;;;;;;;7.52;87.68;96239.70;1795125;80;20998;-70
2021/11/07 05:54:53;;;;;;;19.97;12.43;;;;;;;7.53;86.99;96238.80;1795408;80;21062;-69
2021/11/07 05:57:20;;;;;;;19.63;12.23;;;;;;;7.52;86.67;96233.13;1795051;80;21011;-69
2021/11/07 05:59:47;;;;;;;18.27;12.27;;;;;;;7.54;86.82;96241.89;1795529;80;21011;-68
2021/11/07 06:02:15;;;;;;;18.97;11.60;;;;;;;7.60;86.74;96251.09;1795233;80;21087;-69
2021/11/07 06:04:43;;;;;;;17.77;12.07;;;;;;;7.59;86.47;96258.55;1795488;80;21071;-69
2021/11/07 06:07:11;;;;;;;18.70;12.57;;;;;;;7.54;86.12;96250.64;1795078;80;21551;-69
2021/11/07 06:09:37;;;;;;;16.70;10.87;;;;;;;7.51;86.40;96241.86;1795131;80;21054;-69
2021/11/07 06:12:05;;;;;;;19.97;13.23;;;;;;;7.52;86.76;96230.06;1795356;80;21041;-69
2021/11/07 06:14:32;;;;;;;20.13;13.10;;;;;;;7.57;86.93;96229.64;1795474;80;21074;-69
2021/11/07 06:16:59;;;;;;;44.10;26.50;;;;;;;7.61;86.70;96221.35;1795210;80;21481;-69
2021/11/07 06:19:25;;;;;;;49.13;28.20;;;;;;;7.61;86.69;96220.04;1795436;80;20999;-69
2021/11/07 06:21:53;;;;;;;44.77;25.30;;;;;;;7.68;86.72;96220.91;1795103;80;21092;-69
2021/11/07 06:24:25;;;;;;;39.17;23.17;;;;;;;7.68;86.69;96228.80;1795515;80;20969;-69
2021/11/07 06:26:49;;;;;;;43.00;22.43;;;;;;;7.65;86.47;96224.84;1794500;80;21083;-69
2021/11/07 06:29:16;;;;;;;45.73;26.13;;;;;;;7.64;86.81;96231.86;1795563;80;20995;-69
2021/11/07 06:31:44;;;;;;;40.37;25.30;;;;;;;7.71;86.85;96232.33;1795300;80;21496;-70
2021/11/07 06:34:11;;;;;;;42.27;25.00;;;;;;;7.75;86.82;96235.37;1795200;80;21035;-69
2021/11/07 06:36:38;;;;;;;38.30;24.67;;;;;;;7.85;87.12;96245.92;1795585;80;21529;-69
2021/11/07 06:39:05;;;;;;;32.20;19.97;;;;;;;7.96;87.43;96238.92;1795304;80;20998;-69
2021/11/07 06:41:31;;;;;;;31.50;20.37;;;;;;;7.97;86.61;96237.63;1795277;80;21110;-69
2021/11/07 06:43:59;;;;;;;23.43;15.63;;;;;;;7.94;86.24;96242.02;1795390;80;21090;-69
2021/11/07 06:46:27;;;;;;;29.57;18.97;;;;;;;7.88;86.07;96244.61;1790666;80;21023;-69
2021/11/07 06:48:53;;;;;;;30.47;21.17;;;;;;;7.84;85.97;96250.30;1795527;80;20987;-68
2021/11/07 06:51:21;;;;;;;28.00;19.30;;;;;;;7.80;86.04;96244.59;1795143;80;21133;-69
2021/11/07 06:53:48;;;;;;;28.47;19.17;;;;;;;7.71;86.08;96240.61;1795453;80;21013;-69
2021/11/07 06:56:15;;;;;;;28.20;20.03;;;;;;;7.64;86.26;96249.38;1792083;80;21051;-69
2021/11/07 06:58:42;;;;;;;26.17;18.53;;;;;;;7.65;86.42;96262.49;1786721;80;21045;-69
2021/11/07 07:01:08;;;;;;;23.03;16.47;;;;;;;7.68;86.41;96245.87;1786819;80;21094;-69
2021/11/07 07:03:35;;;;;;;24.27;17.10;;;;;;;7.69;86.44;96252.89;1786916;80;21015;-69
2021/11/07 07:06:02;;;;;;;20.93;15.17;;;;;;;7.70;86.44;96259.89;1786716;80;21122;-69
2021/11/07 07:08:40;;;;;;;23.37;17.00;;;;;;;7.67;86.39;96245.00;1786805;80;21123;-69
2021/11/07 07:11:00;;;;;;;24.13;17.83;;;;;;;7.67;86.39;96242.37;1784852;80;20980;-69
2021/11/07 07:13:35;;;;;;;21.60;15.77;;;;;;;7.66;86.42;96240.62;1786688;80;21556;-69
2021/11/07 07:16:10;;;;;;;21.17;14.87;;;;;;;7.65;86.45;96239.30;1782822;80;21019;-69
2021/11/07 07:18:44;;;;;;;22.07;15.83;;;;;;;7.61;86.51;96223.08;1785630;80;21034;-69
2021/11/07 07:21:09;;;;;;;47.73;29.77;;;;;;;7.59;86.85;96217.39;1781879;80;21042;-69
2021/11/07 07:26:32;;;;;;;31.00;22.62;;;;;;;7.62;87.71;96215.66;1787300;80;21023;-69
2021/11/07 07:28:47;;;;;;;23.50;16.77;;;;;;;7.69;87.56;96227.50;1781513;80;21612;-68
2021/11/07 07:36:05;;;;;;;23.17;15.40;;;;;;;7.91;87.29;96217.92;1787130;80;21035;-68
2021/11/07 07:38:32;;;;;;;26.63;18.43;;;;;;;8.02;87.72;96220.56;1786817;80;21011;-69
2021/11/07 07:40:59;;;;;;;42.23;25.43;;;;;;;8.06;87.72;96214.86;1787276;80;20971;-69
2021/11/07 07:43:27;;;;;;;18.93;13.30;;;;;;;8.10;87.56;96204.35;1786816;80;21079;-69
2021/11/07 07:45:57;;;;;;;21.63;15.50;;;;;;;8.14;86.93;96206.53;1787025;80;21050;-68
2021/11/07 07:48:22;;;;;;;40.73;26.07;;;;;;;8.26;87.40;96199.97;1786375;80;21138;-68
2021/11/07 07:50:49;;;;;;;26.83;18.70;;;;;;;8.39;87.30;96195.20;1786994;80;21023;-68
2021/11/07 07:53:16;;;;;;;23.83;17.37;;;;;;;8.51;87.14;96188.16;1786677;80;21086;-68
2021/11/07 07:55:42;;;;;;;24.70;17.10;;;;;;;8.55;86.87;96180.27;1786805;80;21015;-68
2021/11/07 07:58:08;;;;;;;21.43;15.80;;;;;;;8.57;86.68;96181.16;1787395;80;21022;-68
2021/11/07 08:00:35;;;;;;;23.90;15.93;;;;;;;8.62;86.78;96183.34;1786803;80;21536;-68
2021/11/07 08:03:02;;;;;;;22.67;16.03;;;;;;;8.68;86.49;96189.47;1786684;80;21138;-68
2021/11/07 08:05:28;;;;;;;22.10;14.30;;;;;;;8.79;86.76;96183.73;1786781;80;21493;-69
2021/11/07 08:07:55;;;;;;;22.63;13.87;;;;;;;8.84;86.20;96177.60;1786789;80;21099;-68
2021/11/07 08:10:22;;;;;;;19.63;13.60;;;;;;;8.91;85.93;96181.52;1786681;80;21038;-68
2021/11/07 08:12:48;;;;;;;17.83;13.60;;;;;;;8.99;85.97;96181.05;1787094;80;20996;-69
2021/11/07 08:15:15;;;;;;;17.33;12.97;;;;;;;9.01;85.22;96179.30;1786718;80;21482;-69
2021/11/07 08:17:43;;;;;;;18.90;12.83;;;;;;;9.00;84.53;96182.82;1786545;80;21034;-68
2021/11/07 08:20:12;;;;;;;16.07;12.83;;;;;;;8.98;84.50;96180.18;1787002;80;21011;-69
2021/11/07 08:22:42;;;;;;;16.23;12.67;;;;;;;9.04;84.89;96185.41;1786854;80;20991;-69
2021/11/07 08:25:21;;;;;;;18.73;12.75;;;;;;;9.12;85.11;96182.75;1787015;80;21022;-69
2021/11/07 08:27:46;;;;;;;17.33;12.70;;;;;;;9.20;85.17;96179.67;1786910;80;20971;-69
2021/11/07 08:30:17;;;;;;;17.75;12.68;;;;;;;9.34;85.24;96169.06;1787001;80;21019;-68
2021/11/07 08:32:44;;;;;;;19.00;13.43;;;;;;;9.50;85.24;96164.63;1787168;80;21078;-68
2021/11/07 08:35:11;;;;;;;17.43;13.93;;;;;;;9.59;84.72;96167.64;1787065;80;21034;-67
2021/11/07 08:37:50;;;;;;;20.32;17.32;;;;;;;9.55;83.57;96161.52;1786466;80;21102;-68
2021/11/07 08:40:21;;;;;;;20.97;13.68;;;;;;;9.47;83.22;96164.16;1786328;80;21035;-68
2021/11/07 08:42:48;;;;;;;25.30;18.17;;;;;;;9.39;83.55;96176.50;1786024;80;21023;-68
2021/11/07 09:09:45;;;;;;;16.10;10.63;;;;;;;8.98;85.43;96189.39;1795041;80;21133;-68
2021/11/07 09:12:13;;;;;;;13.20;10.43;;;;;;;8.98;85.52;96197.29;1795038;80;21026;-68
2021/11/07 09:14:40;;;;;;;14.17;11.00;;;;;;;8.91;85.89;96181.52;1795058;80;21086;-68
2021/11/07 09:17:12;;;;;;;15.43;9.90;;;;;;;8.98;86.26;96180.63;1795333;80;21061;-68
2021/11/07 09:19:41;;;;;;;17.10;11.33;;;;;;;9.15;86.92;96181.86;1795309;80;20963;-68
2021/11/07 09:23:14;;;;;;;13.90;11.10;;;;;;;9.22;86.14;96174.38;1795517;80;20974;-68
2021/11/07 09:24:52;;;;;;;14.37;11.53;;;;;;;9.39;86.34;96174.32;1751818;80;21556;-68
2021/11/07 09:30:01;;;;;;;11.10;7.78;;;;;;;9.65;86.74;96179.02;1795257;80;21022;-68
2021/11/07 09:37:26;;;;;;;7.85;6.15;;;;;;;9.82;84.71;96181.53;1795216;80;21130;-68
2021/11/07 09:39:57;;;;;;;8.58;6.45;;;;;;;9.75;84.43;96190.36;1794137;80;21067;-68
2021/11/07 09:44:55;;;;;;;9.03;6.55;;;;;;;9.61;84.67;96192.22;1795495;80;21023;-67
2021/11/07 09:47:24;;;;;;;8.83;6.47;;;;;;;9.48;85.01;96190.09;1795616;80;21026;-67
2021/11/07 09:49:51;;;;;;;8.23;6.67;;;;;;;9.46;85.08;96188.77;1795478;80;21023;-67
2021/11/07 09:52:24;;;;;;;8.65;6.17;;;;;;;9.46;85.14;96176.05;1795357;80;21061;-68
2021/11/07 09:54:58;;;;;;;8.90;6.30;;;;;;;9.47;85.50;96161.98;1794998;80;21062;-67
2021/11/07 09:57:22;;;;;;;13.00;9.70;;;;;;;9.53;85.74;96160.20;1794393;80;21560;-68
2021/11/07 09:59:59;;;;;;;10.78;6.85;;;;;;;9.62;85.72;96152.67;1795316;80;20998;-68
2021/11/07 10:02:29;;;;;;;11.33;6.58;;;;;;;9.70;85.57;96143.41;1795425;80;21063;-68
2021/11/07 10:04:58;;;;;;;9.38;5.78;;;;;;;9.77;85.84;96124.48;1795593;80;21003;-67
2021/11/07 10:07:32;;;;;;;7.53;5.97;;;;;;;9.82;86.30;96111.70;1795356;80;21568;-68
2021/11/07 10:10:04;;;;;;;8.13;6.10;;;;;;;9.94;86.39;96116.02;1795156;80;20997;-68
2021/11/07 10:15:31;;;;;;;7.25;6.03;;;;;;;10.17;85.72;96103.95;1795271;80;21106;-67
2021/11/07 10:18:05;;;;;;;10.28;7.60;;;;;;;10.21;85.34;96087.23;1795581;80;20995;-68
2021/11/07 10:20:43;;;;;;;9.43;7.30;;;;;;;10.31;85.32;96092.01;1794545;80;21131;-68
2021/11/07 10:23:21;;;;;;;11.35;8.55;;;;;;;10.28;84.79;96061.68;1795257;80;20983;-66
2021/11/07 10:26:02;;;;;;;10.63;8.10;;;;;;;10.35;84.94;96055.01;1795107;80;21074;-68
2021/11/07 10:28:44;;;;;;;11.25;8.25;;;;;;;10.36;85.05;96044.04;1794202;80;21042;-68
2021/11/07 10:31:25;;;;;;;10.13;7.75;;;;;;;10.62;85.99;96037.14;1794104;80;21039;-68
2021/11/07 10:34:03;;;;;;;10.80;7.33;;;;;;;11.36;86.70;96029.56;1795044;80;21030;-68
2021/11/07 10:39:20;;;;;;;9.20;7.10;;;;;;;12.53;82.84;96006.02;1795417;80;21007;-68
2021/11/07 10:47:50;;;;;;;8.70;6.55;;;;;;;12.80;76.61;95993.10;1795322;80;21094;-68
2021/11/07 10:53:15;;;;;;;7.53;6.35;;;;;;;12.49;75.82;95981.82;1795440;80;21041;-66
2021/11/07 10:55:46;;;;;;;6.65;5.87;;;;;;;12.37;77.11;95960.42;1795805;80;21519;-68
2021/11/07 10:58:14;;;;;;;8.35;6.37;;;;;;;12.34;76.49;95949.45;1789279;80;21027;-68
2021/11/07 11:00:46;;;;;;;7.58;6.65;;;;;;;12.55;76.94;95939.37;1787265;80;21026;-67
2021/11/07 11:03:18;;;;;;;9.33;7.00;;;;;;;13.04;77.21;95929.01;1787406;80;21086;-69
2021/11/07 11:08:36;;;;;;;6.92;6.22;;;;;;;13.61;75.38;95931.67;1786512;80;21572;-68
2021/11/07 11:11:08;;;;;;;8.20;6.90;;;;;;;13.59;71.98;95917.12;1753527;80;20971;-68
2021/11/07 11:13:56;;;;;;;7.62;6.70;;;;;;;13.41;72.99;95914.94;1786380;80;21506;-68
2021/11/07 11:16:35;;;;;;;8.88;6.00;;;;;;;13.66;73.33;95903.69;1785918;80;21086;-68
2021/11/07 11:24:35;;;;;;;8.33;6.55;;;;;;;13.60;71.67;95886.17;1786902;80;21097;-66
2021/11/07 11:34:26;;;;;;;8.15;5.83;;;;;;;14.24;72.03;95882.25;1786676;80;21087;-66
2021/11/07 11:37:00;;;;;;;12.28;9.25;;;;;;;14.39;69.45;95879.58;1786803;80;21014;-66
2021/11/07 11:39:34;;;;;;;9.10;6.92;;;;;;;14.79;70.89;95891.29;1785486;80;21548;-68
2021/11/07 11:42:03;;;;;;;7.35;5.70;;;;;;;15.36;69.53;95896.13;1785677;80;21022;-68
2021/11/07 11:44:27;;;;;;;7.00;6.30;;;;;;;15.78;68.57;95895.20;1785723;80;21469;-68
2021/11/07 11:47:28;;;;;;;8.93;7.70;;;;;;;16.22;66.63;95891.42;1786986;80;21536;-68
2021/11/07 11:50:17;;;;;;;10.10;9.03;;;;;;;16.94;65.73;95897.23;1771230;80;21591;-68
2021/11/07 11:52:39;;;;;;;9.68;8.60;;;;;;;17.26;63.21;95893.75;1783876;80;21035;-69
2021/11/07 12:00:44;;;;;;;8.90;8.00;;;;;;;16.46;63.63;95888.81;1786954;80;21090;-68
2021/11/07 12:03:25;;;;;;;9.23;7.30;;;;;;;16.38;64.51;95888.23;1786073;80;21010;-68
2021/11/07 12:05:55;;;;;;;8.33;7.53;;;;;;;16.34;64.43;95880.80;1785115;80;21090;-68
2021/11/07 12:08:34;;;;;;;8.53;7.17;;;;;;;16.28;64.93;95867.72;1786525;80;21503;-68
2021/11/07 12:11:37;;;;;;;9.93;7.60;;;;;;;16.21;64.20;95860.41;1785663;80;20983;-68
2021/11/07 12:14:15;;;;;;;8.58;7.35;;;;;;;16.18;64.22;95861.00;1786557;80;20991;-68
2021/11/07 12:16:50;;;;;;;10.35;8.13;;;;;;;15.75;64.27;95866.52;1786747;80;21059;-68
2021/11/07 12:19:20;;;;;;;10.98;7.87;;;;;;;15.00;65.98;95864.50;1787173;80;21607;-68
2021/11/07 12:22:04;;;;;;;10.72;8.75;;;;;;;14.63;66.94;95864.77;1786984;80;21041;-68
2021/11/07 12:24:48;;;;;;;8.58;6.87;;;;;;;14.58;68.19;95868.02;1787082;80;21007;-68
2021/11/07 12:27:45;;;;;;;9.98;6.85;;;;;;;14.71;68.12;95867.59;1786151;80;21484;-68
2021/11/07 12:30:28;;;;;;;10.63;7.40;;;;;;;15.03;66.87;95855.56;1786897;80;21563;-68
2021/11/07 12:33:21;;;;;;;10.45;8.48;;;;;;;14.73;67.07;95862.23;1786931;80;21099;-68
2021/11/07 12:36:03;;;;;;;12.75;8.93;;;;;;;14.76;67.47;95855.50;1786687;80;21408;-68
2021/11/07 12:41:18;;;;;;;9.65;7.33;;;;;;;15.22;67.30;95850.08;1786942;80;21053;-68
2021/11/07 12:43:50;;;;;;;9.73;7.30;;;;;;;15.71;66.04;95848.44;1787185;80;20999;-68
2021/11/07 12:49:18;;;;;;;9.85;8.85;;;;;;;15.44;66.16;95854.66;1786766;80;20987;-68
2021/11/07 12:51:53;;;;;;;10.82;9.65;;;;;;;15.04;66.92;95855.50;1786827;80;21058;-68
2021/11/07 12:54:36;;;;;;;11.85;9.48;;;;;;;14.45;67.33;95867.48;1786656;80;21584;-68
2021/11/07 12:57:16;;;;;;;10.08;8.43;;;;;;;13.78;69.04;95866.25;1787455;80;21026;-69
2021/11/07 12:59:53;;;;;;;13.10;8.78;;;;;;;12.93;71.63;95877.62;1795111;80;21552;-69
2021/11/07 13:02:33;;;;;;;13.48;11.28;;;;;;;12.50;72.96;95883.01;1793949;80;21524;-69
2021/11/07 13:05:18;;;;;;;14.47;11.20;;;;;;;12.08;74.10;95902.36;1795551;80;21042;-69
2021/11/07 13:07:51;;;;;;;17.10;11.38;;;;;;;11.78;74.72;95913.03;1795696;80;21086;-69
2021/11/07 13:10:24;;;;;;;12.40;9.93;;;;;;;11.47;76.61;95917.54;1795574;80;21014;-69
2021/11/07 13:12:56;;;;;;;16.12;12.05;;;;;;;11.27;77.18;95911.72;1795268;80;22151;-69
2021/11/07 13:23:58;;;;;;;19.52;13.38;;;;;;;10.38;79.75;95945.95;1795585;80;21089;-67
2021/11/07 13:29:28;;;;;;;36.95;24.77;;;;;;;9.84;81.34;95949.16;1667568;86;21019;-68
2021/11/07 13:32:00;;;;;;;33.55;22.17;;;;;;;9.61;81.83;95959.92;1665304;86;21557;-67
2021/11/07 13:34:23;;;;;;;33.00;21.60;;;;;;;9.33;83.11;95961.05;1725098;80;21033;-68
2021/11/07 13:36:50;;;;;;;19.98;14.55;;;;;;;9.17;83.02;95976.97;1794735;80;21073;-69
2021/11/07 13:39:25;;;;;;;18.87;13.13;;;;;;;8.88;84.65;95975.38;1794371;80;21086;-68
2021/11/07 13:41:57;;;;;;;26.90;18.67;;;;;;;8.84;84.11;95982.88;1794905;80;21520;-70